Time;durP1;ratioP1;P1;durP2;ratioP2;P2;SDS_P1;SDS_P2;PMS_P1;PMS_P2;Temp;Humidity;BMP_temperature;BMP_pressure;BME280_temperature;BME280_humidity;BME280_pressure;Samples;Min_cycle;Max_cycle;Signal;HPM_P1;HPM_P2
2023/10/22 00:00:09;;;;;;;5.73;0.60;;;17.00;81.80;;;;;;4809797;29;20107;-89
2023/10/22 00:02:39;;;;;;;6.40;0.80;;;17.00;81.90;;;;;;4825025;29;20078;-89
2023/10/22 00:05:07;;;;;;;5.22;0.93;;;16.90;81.90;;;;;;4824829;29;20085;-89
2023/10/22 00:07:35;;;;;;;8.05;0.98;;;17.00;81.80;;;;;;4824630;29;20484;-89
2023/10/22 00:10:03;;;;;;;4.70;1.02;;;17.00;81.50;;;;;;4824775;29;20047;-89
2023/10/22 00:12:30;;;;;;;5.93;0.90;;;17.00;81.70;;;;;;4824662;29;20057;-89
2023/10/22 00:14:57;;;;;;;8.40;0.82;;;17.10;81.90;;;;;;4824702;29;20053;-89
2023/10/22 00:17:24;;;;;;;7.88;0.82;;;17.10;81.80;;;;;;4824526;29;20088;-89
2023/10/22 00:19:51;;;;;;;8.05;1.15;;;17.00;81.80;;;;;;4806524;29;20055;-89
2023/10/22 00:22:18;;;;;;;7.47;1.08;;;17.00;81.90;;;;;;4806713;29;20047;-89
2023/10/22 00:24:45;;;;;;;8.40;0.90;;;16.90;82.10;;;;;;4806890;29;20495;-89
2023/10/22 00:27:12;;;;;;;4.78;0.90;;;16.80;82.30;;;;;;4806516;29;20043;-90
2023/10/22 00:29:40;;;;;;;8.07;1.02;;;16.80;82.30;;;;;;4806370;29;20050;-89
2023/10/22 00:32:07;;;;;;;6.22;1.15;;;16.90;82.40;;;;;;4791383;29;20050;-89
2023/10/22 00:34:34;;;;;;;4.80;0.98;;;16.90;82.20;;;;;;4811975;29;20046;-89
2023/10/22 00:37:02;;;;;;;6.10;1.20;;;16.90;82.40;;;;;;4824287;29;20068;-89
2023/10/22 00:39:30;;;;;;;5.78;1.05;;;16.90;82.40;;;;;;4824315;29;20088;-89
2023/10/22 00:41:57;;;;;;;4.38;0.88;;;17.00;82.20;;;;;;4809256;29;20054;-90
2023/10/22 00:44:24;;;;;;;3.63;0.80;;;17.00;82.10;;;;;;4824571;29;20058;-89
2023/10/22 00:46:51;;;;;;;3.88;0.90;;;17.00;81.90;;;;;;4809160;29;20054;-90
2023/10/22 00:49:19;;;;;;;5.30;1.00;;;17.10;81.60;;;;;;4824166;29;20107;-89
2023/10/22 00:51:48;;;;;;;6.15;1.30;;;17.10;81.60;;;;;;4809051;29;20502;-89
2023/10/22 00:54:16;;;;;;;9.63;1.42;;;17.00;81.70;;;;;;4824062;29;20141;-88
2023/10/22 00:56:46;;;;;;;4.40;1.10;;;17.00;82.00;;;;;;4824154;29;20583;-89
2023/10/22 00:59:14;;;;;;;5.53;1.08;;;16.90;82.30;;;;;;4824045;29;20046;-89
2023/10/22 01:01:42;;;;;;;8.20;1.37;;;16.90;82.30;;;;;;4823995;29;20050;-89
2023/10/22 01:04:10;;;;;;;8.05;0.95;;;16.90;82.20;;;;;;4827714;29;20072;-89
2023/10/22 01:07:05;;;;;;;5.95;1.00;;;17.00;82.10;;;;;;5083759;28;20347;-89
2023/10/22 01:09:33;;;;;;;4.90;1.10;;;17.00;82.20;;;;;;5027118;28;20038;-88
2023/10/22 01:12:04;;;;;;;5.00;0.65;;;17.00;82.20;;;;;;5014275;28;20076;-89
2023/10/22 01:14:32;;;;;;;5.30;0.90;;;17.00;82.00;;;;;;5046996;28;20045;-89
2023/10/22 01:17:00;;;;;;;6.70;1.30;;;17.00;82.20;;;;;;5033799;28;20052;-89
2023/10/22 01:19:27;;;;;;;4.45;0.77;;;16.90;82.20;;;;;;5030801;28;20041;-89
2023/10/22 01:21:54;;;;;;;3.00;0.75;;;16.90;82.20;;;;;;5023303;28;20484;-89
2023/10/22 01:24:21;;;;;;;5.35;1.02;;;16.80;82.40;;;;;;5032496;28;20046;-89
2023/10/22 01:26:48;;;;;;;4.90;0.90;;;16.80;82.40;;;;;;5033440;28;20047;-89
2023/10/22 01:29:15;;;;;;;4.30;1.10;;;16.80;82.60;;;;;;5025131;28;20498;-89
2023/10/22 01:31:42;;;;;;;3.75;0.80;;;16.70;82.70;;;;;;5029365;28;20042;-89
2023/10/22 01:34:09;;;;;;;6.28;1.50;;;16.70;82.80;;;;;;5032425;28;20052;-89
2023/10/22 01:36:36;;;;;;;3.38;0.90;;;16.80;82.90;;;;;;5029958;28;20041;-89
2023/10/22 01:39:04;;;;;;;4.10;0.90;;;16.80;82.70;;;;;;5013608;28;20049;-89
2023/10/22 01:41:31;;;;;;;4.07;1.00;;;16.80;82.60;;;;;;5018440;28;20048;-89
2023/10/22 01:43:59;;;;;;;4.38;0.85;;;16.90;82.30;;;;;;5033318;28;20053;-89
2023/10/22 01:46:26;;;;;;;7.03;0.82;;;17.00;82.30;;;;;;5031037;28;20049;-89
2023/10/22 01:48:53;;;;;;;4.45;0.90;;;17.00;82.10;;;;;;5036575;28;20063;-89
2023/10/22 01:51:21;;;;;;;4.32;0.80;;;17.00;81.90;;;;;;5048468;28;20041;-89
2023/10/22 01:53:49;;;;;;;5.30;0.80;;;17.00;81.80;;;;;;5024922;28;20552;-89
2023/10/22 01:56:16;;;;;;;3.15;0.80;;;17.10;81.80;;;;;;5029576;28;20148;-89
2023/10/22 01:58:45;;;;;;;5.18;1.08;;;17.10;81.80;;;;;;5029436;28;20092;-89
2023/10/22 02:01:12;;;;;;;3.50;0.70;;;17.00;81.90;;;;;;5038239;28;20045;-90
2023/10/22 02:03:44;;;;;;;7.35;0.90;;;17.00;82.00;;;;;;5032814;28;20514;-90
2023/10/22 02:06:13;;;;;;;5.57;0.80;;;17.00;82.00;;;;;;5049048;28;20087;-90
2023/10/22 02:08:41;;;;;;;5.35;0.90;;;17.00;82.00;;;;;;5020087;28;20049;-90
2023/10/22 02:11:09;;;;;;;4.20;0.90;;;17.00;81.90;;;;;;5035405;28;20042;-90
2023/10/22 02:13:37;;;;;;;6.07;0.85;;;17.00;82.20;;;;;;5032819;28;20083;-89
2023/10/22 02:16:05;;;;;;;5.32;0.82;;;17.00;82.20;;;;;;5027886;28;20103;-89
2023/10/22 02:18:34;;;;;;;6.33;0.73;;;17.10;82.00;;;;;;5019184;28;20041;-89
2023/10/22 02:21:03;;;;;;;4.28;1.00;;;17.10;81.90;;;;;;5019236;28;20061;-89
2023/10/22 02:23:30;;;;;;;5.38;0.60;;;17.10;81.80;;;;;;5019331;28;20045;-88
2023/10/22 02:25:57;;;;;;;5.28;0.75;;;17.10;81.60;;;;;;5035345;28;20045;-89
2023/10/22 02:28:24;;;;;;;7.20;0.98;;;17.20;81.50;;;;;;5018500;28;20050;-89
2023/10/22 02:30:51;;;;;;;4.00;1.00;;;17.20;81.50;;;;;;5018144;28;20065;-89
2023/10/22 02:33:19;;;;;;;2.42;0.47;;;17.20;81.30;;;;;;5003605;28;20056;-88
2023/10/22 02:35:46;;;;;;;4.20;0.80;;;17.20;81.10;;;;;;5006446;28;20450;-89
2023/10/22 02:38:16;;;;;;;6.43;0.88;;;17.30;81.00;;;;;;5021869;28;20061;-89
2023/10/22 02:40:44;;;;;;;5.72;0.90;;;17.30;81.00;;;;;;5031957;28;20050;-89
2023/10/22 02:43:11;;;;;;;5.80;0.80;;;17.20;81.20;;;;;;5015626;28;20038;-89
2023/10/22 02:45:51;;;;;;;5.15;0.65;;;17.10;81.40;;;;;;5018470;28;20141;-88
2023/10/22 02:48:18;;;;;;;6.35;0.70;;;17.00;81.60;;;;;;5035191;28;20504;-89
2023/10/22 02:50:46;;;;;;;3.75;0.93;;;17.10;81.40;;;;;;5022171;28;20045;-88
2023/10/22 02:53:14;;;;;;;4.75;0.82;;;17.10;81.40;;;;;;5034926;28;20065;-89
2023/10/22 02:55:41;;;;;;;5.47;0.60;;;17.10;81.40;;;;;;5000368;28;20046;-88
2023/10/22 02:58:08;;;;;;;5.85;0.77;;;17.10;81.50;;;;;;5015244;28;20054;-88
2023/10/22 03:00:35;;;;;;;4.20;0.75;;;17.10;81.40;;;;;;5015364;28;20076;-88
2023/10/22 03:03:04;;;;;;;5.75;0.80;;;17.10;81.50;;;;;;5014693;28;20517;-89
2023/10/22 03:05:48;;;;;;;3.60;1.10;;;17.10;81.60;;;;;;5034663;28;20060;-88
2023/10/22 03:08:15;;;;;;;3.43;0.90;;;17.10;81.60;;;;;;5018285;28;20049;-89
2023/10/22 03:10:43;;;;;;;5.90;1.10;;;17.00;81.70;;;;;;5030016;28;20041;-88
2023/10/22 03:13:10;;;;;;;6.10;1.00;;;17.10;81.90;;;;;;5014668;28;20088;-88
2023/10/22 03:15:37;;;;;;;3.95;1.02;;;17.10;82.00;;;;;;5000319;28;20101;-88
2023/10/22 03:18:07;;;;;;;5.45;0.90;;;17.10;82.00;;;;;;5018259;28;20056;-89
2023/10/22 03:20:34;;;;;;;3.87;0.93;;;17.10;82.00;;;;;;5018266;28;20083;-89
2023/10/22 03:23:03;;;;;;;4.47;0.80;;;17.10;81.80;;;;;;5018152;28;20103;-89
2023/10/22 03:25:30;;;;;;;8.35;1.65;;;17.10;81.80;;;;;;5018071;28;20065;-89
2023/10/22 03:27:57;;;;;;;5.68;1.38;;;17.10;82.00;;;;;;5034342;28;20042;-89
2023/10/22 03:30:24;;;;;;;5.18;1.30;;;17.00;82.20;;;;;;5017544;28;20045;-89
2023/10/22 03:32:55;;;;;;;5.10;1.57;;;17.00;82.50;;;;;;5018092;28;20056;-89
2023/10/22 03:35:22;;;;;;;7.28;1.85;;;16.90;82.70;;;;;;5018157;28;20047;-89
2023/10/22 03:37:50;;;;;;;4.22;1.13;;;16.90;82.90;;;;;;4999029;28;20495;-88
2023/10/22 03:40:19;;;;;;;6.18;1.33;;;16.90;83.00;;;;;;5014554;28;20500;-89
2023/10/22 03:42:47;;;;;;;6.55;2.03;;;16.90;82.90;;;;;;4998299;28;20042;-88
2023/10/22 03:45:14;;;;;;;3.87;1.27;;;16.90;82.90;;;;;;5014170;28;20069;-88
2023/10/22 03:47:41;;;;;;;5.88;1.85;;;16.90;83.10;;;;;;4998048;28;20084;-89
2023/10/22 03:50:09;;;;;;;4.93;1.60;;;16.80;83.20;;;;;;4997924;28;20049;-88
2023/10/22 03:52:36;;;;;;;7.43;1.90;;;16.80;83.40;;;;;;5014810;28;20045;-89
2023/10/22 03:55:04;;;;;;;5.05;1.58;;;16.70;83.60;;;;;;5014213;28;20410;-89
2023/10/22 03:57:31;;;;;;;5.40;1.27;;;16.80;83.70;;;;;;4997903;28;20046;-88
2023/10/22 03:59:58;;;;;;;5.65;1.27;;;16.80;83.40;;;;;;5014039;28;20080;-89
2023/10/22 04:02:26;;;;;;;9.23;2.33;;;16.90;83.10;;;;;;4998025;28;20411;-89
2023/10/22 04:04:54;;;;;;;6.57;1.80;;;16.90;83.00;;;;;;4997802;28;20042;-89
2023/10/22 04:07:21;;;;;;;5.25;1.60;;;16.80;83.40;;;;;;5013966;28;20407;-89
2023/10/22 04:09:48;;;;;;;5.23;1.47;;;16.70;83.40;;;;;;5017773;28;20132;-89
2023/10/22 04:12:15;;;;;;;4.90;1.60;;;16.70;83.60;;;;;;5012881;28;20057;-89
2023/10/22 04:14:42;;;;;;;7.93;2.10;;;16.70;83.50;;;;;;4997648;28;20152;-89
2023/10/22 04:17:09;;;;;;;5.35;2.00;;;16.70;83.50;;;;;;5025041;28;20062;-89
2023/10/22 04:19:37;;;;;;;5.70;2.03;;;16.60;83.70;;;;;;5009915;28;20050;-89
2023/10/22 04:22:04;;;;;;;7.43;2.30;;;16.60;83.70;;;;;;5017142;28;20414;-89
2023/10/22 04:24:31;;;;;;;7.43;2.22;;;16.70;83.70;;;;;;5017136;28;20549;-88
2023/10/22 04:26:58;;;;;;;5.68;2.05;;;16.70;83.70;;;;;;5004422;28;20049;-89
2023/10/22 04:29:25;;;;;;;5.45;1.80;;;16.80;83.40;;;;;;5026349;28;20529;-89
2023/10/22 04:31:52;;;;;;;6.85;2.30;;;16.80;83.10;;;;;;5009243;28;20053;-88
2023/10/22 04:34:19;;;;;;;5.83;1.70;;;16.80;83.00;;;;;;5015191;28;20042;-88
2023/10/22 04:36:46;;;;;;;6.35;1.63;;;16.90;82.80;;;;;;5013664;28;20058;-88
2023/10/22 04:39:13;;;;;;;5.50;1.73;;;16.90;82.60;;;;;;5016661;28;20049;-89
2023/10/22 04:41:40;;;;;;;7.95;2.35;;;16.90;82.30;;;;;;5032922;28;20059;-88
2023/10/22 04:44:07;;;;;;;6.47;2.30;;;16.80;82.60;;;;;;5024478;28;20054;-89
2023/10/22 04:46:34;;;;;;;8.97;2.17;;;16.80;82.80;;;;;;5030286;28;20038;-88
2023/10/22 04:49:01;;;;;;;5.25;1.85;;;16.70;82.90;;;;;;5014238;28;20137;-89
2023/10/22 04:51:29;;;;;;;5.18;2.00;;;16.80;82.70;;;;;;5033043;28;20037;-88
2023/10/22 04:53:56;;;;;;;6.00;2.00;;;16.80;82.60;;;;;;5003067;28;20045;-88
2023/10/22 04:56:23;;;;;;;5.35;1.95;;;16.80;82.50;;;;;;5010832;28;20136;-88
2023/10/22 04:58:50;;;;;;;5.10;1.77;;;16.80;82.50;;;;;;5016554;28;20053;-89
2023/10/22 05:01:17;;;;;;;7.65;2.13;;;16.80;82.40;;;;;;5015818;28;20075;-89
2023/10/22 05:03:45;;;;;;;6.32;2.17;;;16.80;82.40;;;;;;4996861;28;20054;-88
2023/10/22 05:06:12;;;;;;;7.13;2.30;;;16.80;82.40;;;;;;5016463;28;20049;-88
2023/10/22 05:08:40;;;;;;;4.25;1.65;;;16.80;82.50;;;;;;5014481;28;20049;-88
2023/10/22 05:11:17;;;;;;;7.60;2.20;;;16.80;82.50;;;;;;5026717;28;20045;-89
2023/10/22 05:13:45;;;;;;;5.78;1.60;;;16.80;82.50;;;;;;5016552;28;20120;-88
2023/10/22 05:16:13;;;;;;;4.85;1.60;;;16.80;82.50;;;;;;5012164;28;20046;-89
2023/10/22 05:18:40;;;;;;;4.38;1.60;;;16.80;82.60;;;;;;5006680;28;20045;-88
2023/10/22 05:21:07;;;;;;;7.68;1.67;;;16.80;82.60;;;;;;5001934;28;20082;-88
2023/10/22 05:23:35;;;;;;;6.27;1.93;;;16.80;82.70;;;;;;5016912;28;20041;-88
2023/10/22 05:26:11;;;;;;;5.00;1.45;;;16.70;83.00;;;;;;5016210;28;20037;-88
2023/10/22 05:28:39;;;;;;;3.60;1.13;;;16.70;83.30;;;;;;4998822;28;20426;-88
2023/10/22 05:31:20;;;;;;;4.82;1.52;;;16.60;83.40;;;;;;4996740;28;20046;-88
2023/10/22 05:33:47;;;;;;;3.63;1.30;;;16.60;83.40;;;;;;5014435;28;20063;-88
2023/10/22 05:36:19;;;;;;;7.87;1.80;;;16.60;83.70;;;;;;5016330;28;20049;-89
2023/10/22 05:38:47;;;;;;;6.15;1.58;;;16.50;84.10;;;;;;5010489;28;20050;-88
2023/10/22 05:41:28;;;;;;;4.93;1.70;;;16.40;84.60;;;;;;4996770;28;20066;-88
2023/10/22 05:43:58;;;;;;;4.22;1.42;;;16.30;85.00;;;;;;4996471;28;20069;-89
2023/10/22 05:46:26;;;;;;;6.88;1.92;;;16.20;85.30;;;;;;4996707;28;20089;-89
2023/10/22 05:48:54;;;;;;;5.90;2.30;;;16.20;85.30;;;;;;4996443;28;20042;-89
2023/10/22 05:51:39;;;;;;;5.95;2.38;;;16.30;85.40;;;;;;5032778;28;20168;-88
2023/10/22 05:54:06;;;;;;;8.80;2.65;;;16.30;85.50;;;;;;5018106;28;20042;-89
2023/10/22 05:56:38;;;;;;;6.15;2.22;;;16.30;85.50;;;;;;5017587;28;20038;-89
2023/10/22 05:59:08;;;;;;;6.35;2.22;;;16.30;85.50;;;;;;5016202;28;20507;-89
2023/10/22 06:01:38;;;;;;;7.30;2.53;;;16.30;85.50;;;;;;5004641;28;20071;-89
2023/10/22 06:04:06;;;;;;;5.88;2.17;;;16.30;85.50;;;;;;5003283;28;20045;-88
2023/10/22 06:06:34;;;;;;;7.53;2.08;;;16.30;85.50;;;;;;5016035;28;20053;-88
2023/10/22 06:09:01;;;;;;;5.93;1.80;;;16.30;85.40;;;;;;5022517;28;20055;-89
2023/10/22 06:11:29;;;;;;;5.00;1.70;;;16.30;85.60;;;;;;5019439;28;20045;-88
2023/10/22 06:13:56;;;;;;;5.93;1.80;;;16.30;85.70;;;;;;5005155;28;20511;-88
2023/10/22 06:16:24;;;;;;;5.97;1.85;;;16.30;85.70;;;;;;4999815;28;20503;-88
2023/10/22 06:18:51;;;;;;;7.30;2.10;;;16.40;85.60;;;;;;4999963;28;20555;-88
2023/10/22 06:21:18;;;;;;;6.93;2.85;;;16.40;85.50;;;;;;5016130;28;20415;-88
2023/10/22 06:23:45;;;;;;;6.80;2.35;;;16.30;85.50;;;;;;5002295;28;20084;-89
2023/10/22 06:26:13;;;;;;;8.10;2.97;;;16.10;86.20;;;;;;5022415;28;20419;-89
2023/10/22 06:28:41;;;;;;;7.82;2.75;;;16.10;86.40;;;;;;5015637;28;20057;-88
2023/10/22 06:31:13;;;;;;;7.00;2.70;;;16.10;86.50;;;;;;5032263;28;20381;-88
2023/10/22 06:33:41;;;;;;;8.50;3.05;;;16.10;86.30;;;;;;5032908;28;20046;-90
2023/10/22 06:36:21;;;;;;;6.97;2.85;;;16.20;86.30;;;;;;5024327;28;20045;-85
2023/10/22 06:38:49;;;;;;;7.97;2.43;;;16.10;86.40;;;;;;5006060;28;20503;-85
2023/10/22 06:41:26;;;;;;;6.80;2.30;;;16.20;86.40;;;;;;5009016;28;20068;-86
2023/10/22 06:43:54;;;;;;;7.07;2.50;;;16.20;86.20;;;;;;5026066;28;20055;-86
2023/10/22 06:46:21;;;;;;;6.47;2.40;;;16.20;86.30;;;;;;5004893;28;20495;-86
2023/10/22 06:48:48;;;;;;;6.55;2.28;;;16.10;86.30;;;;;;5024312;28;20125;-85
2023/10/22 06:51:16;;;;;;;6.23;2.03;;;16.00;86.60;;;;;;5022714;28;20041;-86
2023/10/22 06:53:46;;;;;;;6.00;2.08;;;16.00;86.90;;;;;;5021446;28;20038;-86
2023/10/22 06:56:15;;;;;;;5.88;1.60;;;15.90;87.10;;;;;;5030484;28;20048;-86
2023/10/22 06:58:44;;;;;;;7.35;2.10;;;15.90;87.40;;;;;;5011759;28;20132;-86
2023/10/22 07:01:13;;;;;;;4.15;1.55;;;15.90;87.40;;;;;;5006321;28;20161;-86
2023/10/22 07:03:43;;;;;;;7.83;2.50;;;15.90;87.40;;;;;;5008294;28;20060;-87
2023/10/22 07:06:11;;;;;;;6.70;2.70;;;16.00;87.40;;;;;;5004955;28;20061;-86
2023/10/22 07:08:39;;;;;;;9.70;3.60;;;16.00;87.50;;;;;;5004867;28;20373;-86
2023/10/22 07:11:06;;;;;;;7.00;3.10;;;16.00;87.40;;;;;;5028617;28;20068;-86
2023/10/22 07:13:33;;;;;;;7.72;3.17;;;16.00;87.40;;;;;;5025572;28;20140;-87
2023/10/22 07:16:00;;;;;;;8.73;3.50;;;16.00;87.40;;;;;;5026743;28;20373;-87
2023/10/22 07:18:28;;;;;;;9.93;3.70;;;16.00;87.30;;;;;;5008378;28;20128;-87
2023/10/22 07:20:55;;;;;;;9.43;3.78;;;16.10;87.10;;;;;;5003238;28;20530;-85
2023/10/22 07:23:22;;;;;;;8.95;3.47;;;16.10;87.10;;;;;;5010649;28;20068;-88
2023/10/22 07:25:56;;;;;;;10.50;4.10;;;16.20;87.00;;;;;;5012313;28;20041;-89
2023/10/22 07:28:23;;;;;;;10.40;4.33;;;16.30;86.80;;;;;;5005342;28;20072;-89
2023/10/22 07:30:50;;;;;;;11.00;5.03;;;16.30;86.60;;;;;;5002207;28;20054;-88
2023/10/22 07:33:18;;;;;;;10.93;4.30;;;16.50;86.30;;;;;;5021066;28;20482;-88
2023/10/22 07:35:56;;;;;;;12.23;3.83;;;16.50;86.30;;;;;;5007576;28;20113;-88
2023/10/22 07:38:24;;;;;;;9.25;3.10;;;16.50;86.10;;;;;;5026471;28;20053;-90
2023/10/22 07:40:55;;;;;;;7.67;2.90;;;16.50;86.10;;;;;;5024186;28;20050;-86
2023/10/22 07:43:25;;;;;;;9.15;3.17;;;16.50;85.80;;;;;;5030234;28;20064;-87
2023/10/22 07:45:52;;;;;;;8.50;2.83;;;16.50;85.70;;;;;;5025167;28;20053;-85
2023/10/22 07:48:20;;;;;;;9.98;3.17;;;16.60;85.60;;;;;;5008835;28;20099;-87
2023/10/22 07:50:47;;;;;;;8.27;2.72;;;16.60;85.50;;;;;;5018544;28;20065;-86
2023/10/22 07:53:15;;;;;;;9.10;3.33;;;16.60;85.40;;;;;;5033212;28;20049;-86
2023/10/22 07:55:42;;;;;;;11.38;3.03;;;16.60;85.20;;;;;;5029242;28;20962;-86
2023/10/22 07:58:09;;;;;;;18.00;3.83;;;16.60;85.20;;;;;;5003098;28;20091;-85
2023/10/22 08:00:37;;;;;;;10.50;3.22;;;16.50;85.30;;;;;;5015111;28;20049;-85
2023/10/22 08:03:04;;;;;;;11.98;2.70;;;16.50;85.40;;;;;;5032850;28;20109;-85
2023/10/22 08:05:31;;;;;;;14.07;2.67;;;16.50;85.40;;;;;;5033476;28;20127;-89
2023/10/22 08:07:59;;;;;;;9.40;2.83;;;16.40;85.30;;;;;;5008422;28;20100;-88
2023/10/22 08:10:29;;;;;;;10.65;3.30;;;16.50;85.30;;;;;;4997661;28;20053;-89
2023/10/22 08:12:56;;;;;;;10.82;3.00;;;16.50;85.00;;;;;;5013899;28;20137;-89
2023/10/22 08:15:23;;;;;;;10.95;2.50;;;16.50;85.20;;;;;;4997292;28;20500;-88
2023/10/22 08:17:50;;;;;;;6.73;1.30;;;16.50;85.10;;;;;;5013909;28;20058;-89
2023/10/22 08:20:17;;;;;;;6.45;1.58;;;16.50;84.40;;;;;;4997648;28;20048;-88
2023/10/22 08:22:44;;;;;;;5.40;1.00;;;16.50;84.00;;;;;;5013716;28;20084;-89
2023/10/22 08:25:12;;;;;;;5.05;1.10;;;16.40;84.10;;;;;;4997517;28;20054;-89
2023/10/22 08:27:39;;;;;;;4.40;0.70;;;16.30;83.70;;;;;;5013395;28;20084;-89
2023/10/22 08:30:07;;;;;;;3.33;0.60;;;16.20;83.90;;;;;;5013657;28;20041;-89
2023/10/22 08:32:34;;;;;;;6.93;2.30;;;16.10;84.00;;;;;;4997246;28;20133;-88
2023/10/22 08:35:03;;;;;;;10.50;3.83;;;16.10;83.80;;;;;;4997345;28;20496;-88
2023/10/22 08:37:30;;;;;;;12.73;5.68;;;16.00;84.00;;;;;;5013425;28;20046;-88
2023/10/22 08:39:57;;;;;;;10.88;5.90;;;16.00;84.00;;;;;;4997293;28;20041;-88
2023/10/22 08:42:25;;;;;;;7.13;2.50;;;16.00;84.20;;;;;;4999657;28;20427;-89
2023/10/22 08:44:52;;;;;;;4.40;0.80;;;16.00;84.10;;;;;;5009696;28;20046;-87
2023/10/22 08:51:22;;;;;;;4.35;0.60;;;15.90;84.10;;;;;;5016187;28;20032;-85
2023/10/22 08:53:49;;;;;;;5.07;0.80;;;15.90;84.40;;;;;;5029180;28;20096;-85
2023/10/22 08:56:17;;;;;;;11.53;2.27;;;16.00;84.50;;;;;;5021980;28;20121;-84
2023/10/22 08:58:44;;;;;;;8.55;2.72;;;16.10;84.30;;;;;;5021235;28;20108;-85
2023/10/22 09:01:11;;;;;;;8.35;2.25;;;16.00;84.50;;;;;;5017963;28;20041;-84
2023/10/22 09:03:39;;;;;;;9.57;2.20;;;16.10;84.40;;;;;;5007622;28;20054;-89
2023/10/22 09:06:07;;;;;;;8.65;1.80;;;16.10;84.60;;;;;;5032453;28;20045;-87
2023/10/22 09:08:52;;;;;;;6.57;1.77;;;16.10;84.70;;;;;;5031911;28;20499;-87
2023/10/22 09:11:20;;;;;;;5.82;1.30;;;16.10;85.00;;;;;;5029218;28;20045;-87
2023/10/22 09:13:48;;;;;;;5.85;1.90;;;16.00;85.00;;;;;;5032550;28;20049;-88
2023/10/22 09:16:33;;;;;;;6.22;1.90;;;16.10;85.10;;;;;;5032463;28;20042;-88
2023/10/22 09:19:41;;;;;;;7.25;2.53;;;16.10;85.00;;;;;;5032851;28;20065;-88
2023/10/22 09:22:24;;;;;;;5.47;1.63;;;16.20;85.00;;;;;;5001499;28;20046;-88
2023/10/22 09:24:55;;;;;;;5.95;2.10;;;16.20;85.00;;;;;;5011682;28;20053;-87
2023/10/22 09:27:32;;;;;;;6.22;2.15;;;16.20;85.00;;;;;;5026643;28;20045;-90
2023/10/22 09:30:00;;;;;;;10.90;2.22;;;16.20;85.20;;;;;;5020031;28;20407;-89
2023/10/22 09:32:30;;;;;;;8.50;2.97;;;16.10;85.50;;;;;;5036877;28;20037;-89
2023/10/22 09:35:14;;;;;;;9.10;3.43;;;16.10;85.60;;;;;;5036908;28;20045;-91
2023/10/22 09:37:51;;;;;;;10.77;6.38;;;16.10;85.80;;;;;;5037135;28;20057;-92
2023/10/22 09:40:23;;;;;;;11.75;6.82;;;16.20;85.80;;;;;;5041563;28;20557;-94
2023/10/22 09:42:51;;;;;;;10.57;6.20;;;16.20;85.90;;;;;;5021375;28;20057;-90
2023/10/22 09:45:20;;;;;;;12.20;7.50;;;16.20;86.20;;;;;;5019943;28;20479;-89
2023/10/22 09:47:50;;;;;;;14.03;7.87;;;16.20;86.50;;;;;;5010603;28;20041;-90
2023/10/22 09:50:31;;;;;;;14.80;6.75;;;16.20;86.80;;;;;;5033189;28;20109;-85
2023/10/22 09:53:01;;;;;;;10.32;6.03;;;16.20;86.50;;;;;;5034575;28;20036;-84
2023/10/22 09:55:32;;;;;;;12.63;6.30;;;16.10;84.60;;;;;;5010775;28;20088;-83
2023/10/22 09:58:08;;;;;;;11.50;6.93;;;16.00;85.10;;;;;;5011846;28;20054;-84
2023/10/22 10:00:35;;;;;;;10.40;6.70;;;16.00;85.40;;;;;;5022996;28;20046;-85
2023/10/22 10:03:19;;;;;;;10.75;6.53;;;16.00;85.00;;;;;;5011951;28;20053;-87
2023/10/22 10:05:48;;;;;;;11.88;7.10;;;16.00;84.90;;;;;;5031591;28;20061;-87
2023/10/22 10:08:17;;;;;;;12.07;7.80;;;15.90;84.90;;;;;;5021786;28;20038;-92
2023/10/22 10:10:46;;;;;;;12.20;7.82;;;15.80;85.30;;;;;;5031118;28;20038;-89
2023/10/22 10:13:13;;;;;;;12.73;8.20;;;15.60;85.40;;;;;;5035090;28;20807;-91
2023/10/22 10:15:40;;;;;;;13.73;9.32;;;15.60;85.20;;;;;;5023682;28;20427;-88
2023/10/22 10:18:09;;;;;;;12.35;8.45;;;15.50;85.60;;;;;;5018023;28;20056;-89
2023/10/22 10:20:39;;;;;;;14.35;9.52;;;15.50;84.80;;;;;;5036088;28;20053;-87
2023/10/22 10:23:18;;;;;;;13.95;8.77;;;15.50;84.90;;;;;;5035754;28;20140;-88
2023/10/22 10:25:46;;;;;;;14.07;8.13;;;15.40;85.00;;;;;;5035833;28;20574;-88
2023/10/22 10:28:13;;;;;;;16.33;9.05;;;15.30;85.00;;;;;;5035593;28;20049;-86
2023/10/22 10:30:41;;;;;;;16.30;10.43;;;15.30;85.00;;;;;;5035415;28;20510;-89
2023/10/22 10:33:12;;;;;;;12.55;8.50;;;15.20;85.30;;;;;;5014689;28;20474;-89
2023/10/22 10:35:48;;;;;;;12.82;7.93;;;15.10;84.90;;;;;;5014903;28;20103;-88
2023/10/22 10:38:19;;;;;;;12.27;7.67;;;15.10;84.90;;;;;;5019133;28;20051;-89
2023/10/22 10:40:51;;;;;;;11.82;7.72;;;15.10;84.70;;;;;;5035738;28;20045;-89
2023/10/22 10:43:19;;;;;;;12.55;6.78;;;15.10;84.70;;;;;;5031552;28;20099;-88
2023/10/22 10:46:23;;;;;;;12.20;7.32;;;15.10;84.50;;;;;;5019244;28;20444;-88
2023/10/22 10:48:52;;;;;;;9.30;5.63;;;15.10;84.70;;;;;;5047177;28;20049;-88
2023/10/22 10:51:23;;;;;;;9.30;5.23;;;15.00;84.10;;;;;;5027316;28;20046;-88
2023/10/22 10:54:00;;;;;;;9.45;5.70;;;15.00;84.50;;;;;;5034974;28;20525;-88
2023/10/22 10:57:07;;;;;;;8.90;4.43;;;15.00;84.40;;;;;;5032595;28;20042;-89
2023/10/22 10:59:36;;;;;;;9.07;4.60;;;15.00;84.30;;;;;;5001664;28;20099;-88
2023/10/22 11:02:11;;;;;;;7.60;4.32;;;15.00;84.50;;;;;;4996995;28;20050;-86
2023/10/22 11:04:45;;;;;;;8.13;4.23;;;15.00;84.30;;;;;;5040429;28;20136;-86
2023/10/22 11:07:13;;;;;;;7.47;3.80;;;15.00;84.40;;;;;;5029186;28;20042;-90
2023/10/22 11:09:44;;;;;;;7.22;4.20;;;15.00;84.10;;;;;;5013723;28;20132;-88
2023/10/22 11:12:11;;;;;;;7.53;3.92;;;15.00;83.70;;;;;;5030210;28;20046;-87
2023/10/22 11:14:38;;;;;;;8.52;3.80;;;14.90;83.60;;;;;;5026938;28;20037;-86
2023/10/22 11:17:06;;;;;;;7.40;3.97;;;14.90;83.80;;;;;;5024257;28;20442;-87
2023/10/22 11:19:34;;;;;;;7.20;3.70;;;15.00;83.70;;;;;;5021912;28;20441;-86
2023/10/22 11:22:01;;;;;;;7.45;3.72;;;14.90;83.30;;;;;;5024036;28;20406;-86
2023/10/22 11:24:32;;;;;;;7.90;3.63;;;15.00;83.50;;;;;;5031466;28;20068;-86
2023/10/22 11:27:02;;;;;;;8.40;3.25;;;15.00;83.20;;;;;;5032523;28;20502;-86
2023/10/22 11:29:41;;;;;;;7.30;3.40;;;15.00;83.10;;;;;;5025999;28;20038;-86
2023/10/22 11:32:13;;;;;;;6.45;3.80;;;15.00;83.20;;;;;;5030285;28;20049;-87
2023/10/22 11:34:54;;;;;;;7.30;3.88;;;15.10;83.10;;;;;;5024805;28;20042;-86
2023/10/22 11:37:36;;;;;;;5.25;2.75;;;15.10;82.30;;;;;;5032901;28;20068;-87
2023/10/22 11:40:28;;;;;;;7.70;2.80;;;15.10;82.40;;;;;;5023676;28;20446;-86
2023/10/22 11:43:04;;;;;;;7.87;2.73;;;15.00;82.50;;;;;;5027561;28;20369;-86
2023/10/22 11:45:34;;;;;;;7.90;2.92;;;15.00;82.40;;;;;;5031830;28;20156;-87
2023/10/22 11:48:21;;;;;;;5.30;2.33;;;14.90;82.30;;;;;;5024912;28;20049;-88
2023/10/22 11:50:56;;;;;;;5.78;2.13;;;14.90;81.80;;;;;;5032546;28;20049;-88
2023/10/22 11:53:29;;;;;;;4.10;2.20;;;15.00;82.20;;;;;;5030819;28;20042;-88
2023/10/22 11:55:56;;;;;;;4.10;2.30;;;15.00;81.70;;;;;;5007919;28;20045;-89
2023/10/22 11:58:25;;;;;;;4.72;2.58;;;15.10;81.50;;;;;;5009110;28;20558;-89
2023/10/22 12:00:52;;;;;;;4.18;2.20;;;15.30;81.40;;;;;;5028415;28;20100;-88
2023/10/22 12:03:19;;;;;;;4.60;2.40;;;15.30;80.60;;;;;;5031427;28;20041;-89
2023/10/22 12:05:47;;;;;;;4.57;2.25;;;15.40;80.80;;;;;;5032480;28;20064;-89
2023/10/22 12:08:14;;;;;;;4.83;2.67;;;15.50;80.30;;;;;;5017095;28;20064;-89
2023/10/22 12:10:41;;;;;;;4.55;2.65;;;15.50;80.10;;;;;;5025977;28;20046;-89
2023/10/22 12:13:10;;;;;;;5.53;2.55;;;15.50;80.60;;;;;;5029681;28;20041;-86
2023/10/22 12:15:37;;;;;;;4.35;2.20;;;15.50;79.70;;;;;;5027965;28;20406;-84
2023/10/22 12:18:05;;;;;;;3.97;2.28;;;15.50;80.10;;;;;;5010448;28;20049;-84
2023/10/22 12:20:33;;;;;;;3.77;1.70;;;15.50;80.00;;;;;;5048274;28;20049;-84
2023/10/22 12:23:00;;;;;;;3.45;1.92;;;15.40;79.80;;;;;;5027909;28;20055;-83
2023/10/22 12:25:31;;;;;;;3.75;2.10;;;15.40;80.10;;;;;;5021131;28;20107;-84
2023/10/22 12:27:59;;;;;;;3.63;1.92;;;15.40;80.10;;;;;;5011562;28;20068;-82
2023/10/22 12:30:26;;;;;;;3.60;1.90;;;15.40;79.70;;;;;;5026899;28;20042;-82
2023/10/22 12:32:54;;;;;;;3.93;2.00;;;15.40;80.00;;;;;;5024280;28;20045;-81
2023/10/22 12:35:22;;;;;;;3.75;2.05;;;15.50;79.90;;;;;;5047809;28;20136;-82
2023/10/22 12:37:51;;;;;;;3.60;2.22;;;15.50;79.70;;;;;;5012105;28;20045;-82
2023/10/22 12:40:18;;;;;;;3.95;2.00;;;15.40;80.10;;;;;;5024901;28;20060;-82
2023/10/22 12:42:45;;;;;;;5.15;2.10;;;15.40;79.40;;;;;;5026376;28;20037;-83
2023/10/22 12:45:13;;;;;;;3.17;1.70;;;15.30;79.90;;;;;;5026996;28;20037;-83
2023/10/22 12:47:40;;;;;;;4.72;2.15;;;15.40;79.00;;;;;;5002426;28;20099;-83
2023/10/22 12:50:08;;;;;;;3.35;1.90;;;15.30;79.30;;;;;;5011616;28;20065;-81
2023/10/22 12:52:36;;;;;;;4.35;2.20;;;15.30;79.20;;;;;;5022331;28;20037;-82
2023/10/22 12:55:04;;;;;;;5.03;2.38;;;15.30;79.60;;;;;;5022689;28;20166;-83
2023/10/22 12:57:32;;;;;;;4.10;2.37;;;15.30;79.50;;;;;;5029375;28;20044;-85
2023/10/22 13:00:03;;;;;;;3.35;1.90;;;15.40;79.40;;;;;;5027279;28;20048;-91